Time;durP1;ratioP1;P1;durP2;ratioP2;P2;SDS_P1;SDS_P2;PMS_P1;PMS_P2;Temp;Humidity;BMP_temperature;BMP_pressure;BME280_temperature;BME280_humidity;BME280_pressure;Samples;Min_cycle;Max_cycle;Signal;HPM_P1;HPM_P2
2023/05/03 00:00:01;;;;;;;8.00;4.07;;;8.00;99.90;;;;;;4989260;28;20044;-71
2023/05/03 00:02:27;;;;;;;8.90;4.18;;;8.00;99.90;;;;;;4987844;28;20681;-73
2023/05/03 00:04:53;;;;;;;7.88;4.22;;;8.00;99.90;;;;;;4988559;28;20080;-73
2023/05/03 00:07:19;;;;;;;9.57;3.75;;;8.10;99.90;;;;;;4988375;28;20057;-73
2023/05/03 00:09:45;;;;;;;8.07;4.35;;;8.10;99.90;;;;;;4963809;28;20479;-71
2023/05/03 00:12:11;;;;;;;11.60;4.10;;;8.00;99.90;;;;;;4998790;28;20567;-72
2023/05/03 00:14:36;;;;;;;11.32;4.20;;;8.00;99.90;;;;;;4983063;28;20039;-72
2023/05/03 00:17:02;;;;;;;11.50;4.80;;;8.00;99.90;;;;;;4985150;28;20475;-73
2023/05/03 00:19:31;;;;;;;7.68;4.22;;;8.00;99.90;;;;;;4987182;28;20096;-72
2023/05/03 00:21:57;;;;;;;7.35;4.00;;;7.90;99.90;;;;;;4980331;28;20126;-73
2023/05/03 00:24:23;;;;;;;11.88;4.47;;;7.80;99.90;;;;;;4985738;28;20034;-73
2023/05/03 00:26:48;;;;;;;7.70;3.85;;;7.80;99.90;;;;;;4986947;28;20026;-74
2023/05/03 00:29:15;;;;;;;9.10;4.15;;;7.80;99.90;;;;;;4986393;28;20034;-71
2023/05/03 00:31:43;;;;;;;8.35;4.15;;;7.80;99.90;;;;;;4984767;28;20089;-72
2023/05/03 00:34:08;;;;;;;7.75;3.95;;;7.70;99.90;;;;;;4977582;28;20031;-73
2023/05/03 00:36:34;;;;;;;11.20;3.85;;;7.70;99.90;;;;;;4986717;28;20482;-71
2023/05/03 00:38:59;;;;;;;7.47;4.05;;;7.50;99.90;;;;;;4971018;28;20061;-72
2023/05/03 00:41:25;;;;;;;8.70;4.00;;;7.40;99.90;;;;;;4979500;28;20054;-71
2023/05/03 00:43:51;;;;;;;9.07;4.57;;;7.30;99.90;;;;;;4987701;28;20057;-70
2023/05/03 00:46:17;;;;;;;12.57;5.15;;;7.30;99.90;;;;;;4976115;28;20115;-72
2023/05/03 00:48:47;;;;;;;7.53;4.45;;;7.30;99.90;;;;;;4984361;28;20325;-71
2023/05/03 00:51:14;;;;;;;11.70;4.75;;;7.40;99.90;;;;;;4983586;28;20046;-73
2023/05/03 00:53:43;;;;;;;7.88;4.10;;;7.40;99.90;;;;;;4977057;28;20471;-72
2023/05/03 00:56:10;;;;;;;9.80;4.40;;;7.40;99.90;;;;;;4966015;28;20052;-76
2023/05/03 00:58:39;;;;;;;8.70;4.10;;;7.20;99.90;;;;;;4987840;28;20034;-71
2023/05/03 01:01:08;;;;;;;9.43;4.40;;;7.10;99.90;;;;;;4970284;28;20096;-72
2023/05/03 01:03:40;;;;;;;7.53;4.15;;;7.00;99.90;;;;;;4980896;28;20035;-72
2023/05/03 01:06:21;;;;;;;10.77;4.40;;;6.90;99.90;;;;;;4991363;28;20026;-71
2023/05/03 01:09:09;;;;;;;9.93;4.45;;;7.00;99.90;;;;;;4991443;28;20050;-72
2023/05/03 01:11:59;;;;;;;9.82;4.47;;;7.00;99.90;;;;;;4982032;28;20125;-71
2023/05/03 01:14:40;;;;;;;9.93;4.30;;;7.00;99.90;;;;;;4985001;28;20037;-71
2023/05/03 01:17:11;;;;;;;7.97;4.53;;;6.90;99.90;;;;;;4977935;28;20035;-71
2023/05/03 01:19:43;;;;;;;10.57;5.43;;;6.80;99.90;;;;;;4985025;28;20030;-71
2023/05/03 01:22:29;;;;;;;8.48;4.60;;;6.70;99.90;;;;;;4986046;28;20361;-71
2023/05/03 01:25:08;;;;;;;10.52;4.53;;;6.50;99.90;;;;;;4991333;28;20022;-73
2023/05/03 01:27:34;;;;;;;16.42;5.10;;;6.40;99.90;;;;;;4990378;28;20102;-74
2023/05/03 01:30:00;;;;;;;9.93;4.63;;;6.40;99.90;;;;;;4991311;28;20022;-73
2023/05/03 01:32:48;;;;;;;8.57;4.57;;;6.50;99.90;;;;;;4990734;28;20026;-72
2023/05/03 01:35:28;;;;;;;9.55;4.95;;;6.50;99.90;;;;;;4984719;28;20490;-72
2023/05/03 01:37:56;;;;;;;8.93;4.40;;;6.60;99.90;;;;;;4990818;28;20431;-72
2023/05/03 01:40:24;;;;;;;10.43;4.70;;;6.50;99.90;;;;;;4990222;28;20510;-71
2023/05/03 01:42:51;;;;;;;9.77;4.80;;;6.60;99.90;;;;;;4990529;28;20422;-72
2023/05/03 01:45:17;;;;;;;9.40;4.35;;;6.60;99.90;;;;;;4983748;28;20034;-72
2023/05/03 01:47:43;;;;;;;10.68;4.65;;;6.60;99.90;;;;;;4983347;28;20054;-70
2023/05/03 01:50:09;;;;;;;8.45;4.82;;;6.60;99.90;;;;;;4986825;28;20450;-72
2023/05/03 01:52:34;;;;;;;9.63;4.70;;;6.60;99.90;;;;;;4989598;28;20117;-73
2023/05/03 01:55:00;;;;;;;10.75;5.78;;;6.60;99.90;;;;;;4990316;28;20097;-73
2023/05/03 01:57:26;;;;;;;8.85;4.60;;;6.70;99.90;;;;;;4983701;28;20114;-72
2023/05/03 01:59:51;;;;;;;9.30;4.40;;;6.60;99.90;;;;;;4984003;28;20737;-73
2023/05/03 02:02:17;;;;;;;12.85;4.43;;;6.60;99.90;;;;;;4983607;28;20030;-74
2023/05/03 02:04:42;;;;;;;11.73;4.70;;;6.50;99.90;;;;;;4988649;28;20030;-71
2023/05/03 02:07:08;;;;;;;13.02;4.50;;;6.50;99.90;;;;;;4988360;28;20022;-71
2023/05/03 02:09:34;;;;;;;11.27;4.85;;;6.40;99.90;;;;;;4985210;28;20542;-72
2023/05/03 02:11:59;;;;;;;9.52;4.57;;;6.30;99.90;;;;;;4989454;28;20372;-73
2023/05/03 02:14:25;;;;;;;10.15;5.03;;;6.30;99.90;;;;;;4981033;28;20026;-72
2023/05/03 02:16:53;;;;;;;10.25;4.65;;;6.40;99.90;;;;;;4977781;28;20419;-72
2023/05/03 02:19:19;;;;;;;11.70;4.47;;;6.40;99.90;;;;;;4988073;28;20027;-73
2023/05/03 02:21:44;;;;;;;10.45;3.70;;;6.40;99.90;;;;;;4980722;28;20109;-74
2023/05/03 02:24:10;;;;;;;11.45;4.18;;;6.30;99.90;;;;;;4989198;28;20035;-69
2023/05/03 02:26:36;;;;;;;11.48;4.22;;;6.20;99.90;;;;;;4983706;28;20471;-72
2023/05/03 02:29:02;;;;;;;10.00;4.10;;;6.10;99.90;;;;;;4982473;28;20038;-72
2023/05/03 02:31:28;;;;;;;9.93;4.43;;;6.00;99.90;;;;;;4980500;28;20026;-72
2023/05/03 02:33:54;;;;;;;10.68;4.88;;;5.90;99.90;;;;;;4990017;28;20034;-72
2023/05/03 02:36:20;;;;;;;11.30;4.50;;;5.80;99.90;;;;;;4988742;28;20538;-72
2023/05/03 02:38:46;;;;;;;12.00;4.32;;;5.80;99.90;;;;;;4984218;28;20534;-72
2023/05/03 02:41:11;;;;;;;13.30;4.97;;;5.80;99.90;;;;;;4985787;28;20052;-72
2023/05/03 02:43:37;;;;;;;10.18;4.68;;;5.70;99.90;;;;;;4988206;28;20031;-72
2023/05/03 02:46:03;;;;;;;11.90;4.95;;;5.60;99.90;;;;;;4989521;28;20129;-72
2023/05/03 02:48:28;;;;;;;10.30;4.60;;;5.50;99.90;;;;;;4986458;28;20438;-71
2023/05/03 02:50:54;;;;;;;12.32;4.40;;;5.40;99.90;;;;;;4989421;28;20035;-72
2023/05/03 02:53:20;;;;;;;12.02;4.90;;;5.50;99.90;;;;;;4987362;28;20058;-75
2023/05/03 02:55:46;;;;;;;10.25;4.68;;;5.50;99.90;;;;;;4987909;28;20076;-71
2023/05/03 02:58:11;;;;;;;9.13;4.95;;;5.50;99.90;;;;;;4977617;28;20041;-69
2023/05/03 03:00:37;;;;;;;9.88;4.90;;;5.40;99.90;;;;;;4981546;28;20022;-70
2023/05/03 03:03:03;;;;;;;12.77;4.55;;;5.40;99.90;;;;;;4984399;28;20049;-70
2023/05/03 03:05:28;;;;;;;9.60;4.70;;;5.30;99.90;;;;;;4986951;28;20038;-70
2023/05/03 03:07:54;;;;;;;11.77;5.13;;;5.30;99.90;;;;;;4988075;28;20038;-70
2023/05/03 03:10:20;;;;;;;13.60;5.30;;;5.40;99.90;;;;;;4989310;28;20027;-70
2023/05/03 03:12:45;;;;;;;10.10;4.72;;;5.40;99.90;;;;;;4988834;28;20030;-69
2023/05/03 03:15:12;;;;;;;12.27;5.50;;;5.40;99.90;;;;;;4971452;28;20096;-70
2023/05/03 03:17:38;;;;;;;24.23;5.50;;;5.30;99.90;;;;;;4988350;28;20026;-70
2023/05/03 03:20:06;;;;;;;10.82;5.10;;;5.20;99.90;;;;;;4989617;28;20045;-69
2023/05/03 03:22:32;;;;;;;10.95;4.32;;;5.20;99.90;;;;;;4987846;28;20341;-69
2023/05/03 03:24:57;;;;;;;11.07;5.10;;;5.20;99.90;;;;;;4981394;28;20047;-67
2023/05/03 03:27:23;;;;;;;14.00;5.45;;;5.20;99.90;;;;;;4986881;28;20026;-70
2023/05/03 03:29:49;;;;;;;11.68;5.78;;;5.20;99.90;;;;;;4989253;28;20034;-70
2023/05/03 03:32:14;;;;;;;13.75;6.75;;;5.20;99.90;;;;;;4989226;28;20392;-70
2023/05/03 03:34:40;;;;;;;13.98;5.68;;;5.20;99.90;;;;;;4988342;28;20240;-70
2023/05/03 03:37:06;;;;;;;13.40;6.90;;;5.20;99.90;;;;;;4989194;28;20042;-68
2023/05/03 03:39:32;;;;;;;20.10;7.45;;;5.20;99.90;;;;;;4980489;28;20046;-70
2023/05/03 03:41:57;;;;;;;17.98;5.72;;;5.20;99.90;;;;;;4980818;28;20045;-71
2023/05/03 03:44:23;;;;;;;12.10;5.90;;;5.20;99.90;;;;;;4980427;28;20408;-73
2023/05/03 03:46:48;;;;;;;18.33;6.22;;;5.20;99.90;;;;;;4980558;28;20056;-69
2023/05/03 03:49:14;;;;;;;14.23;7.00;;;5.20;99.90;;;;;;4986825;28;20057;-69
2023/05/03 03:51:40;;;;;;;13.77;6.43;;;5.10;99.90;;;;;;4987557;28;20026;-71
2023/05/03 03:54:05;;;;;;;12.73;6.05;;;5.10;99.90;;;;;;4989370;28;20026;-70
2023/05/03 03:56:31;;;;;;;12.48;6.07;;;5.00;99.90;;;;;;4988293;28;20043;-70
2023/05/03 03:58:57;;;;;;;15.20;7.15;;;5.10;99.90;;;;;;4986987;28;20157;-69
2023/05/03 04:01:22;;;;;;;13.52;6.50;;;5.10;99.90;;;;;;4979665;28;20026;-73
2023/05/03 04:03:48;;;;;;;12.43;6.32;;;5.10;99.90;;;;;;4985426;28;20371;-71
2023/05/03 04:06:13;;;;;;;13.52;6.05;;;5.10;99.90;;;;;;4982853;28;20033;-71
2023/05/03 04:08:39;;;;;;;12.93;6.32;;;5.10;99.90;;;;;;4979018;28;20058;-69
2023/05/03 04:11:10;;;;;;;9.70;5.10;;;5.10;99.90;;;;;;4987193;28;20136;-69
2023/05/03 04:13:36;;;;;;;11.82;5.50;;;5.20;99.90;;;;;;4967826;28;20030;-70
2023/05/03 04:16:02;;;;;;;12.55;5.80;;;5.10;99.90;;;;;;4982865;28;20410;-70
2023/05/03 04:18:27;;;;;;;9.20;4.57;;;5.00;99.90;;;;;;4982331;28;20065;-72
2023/05/03 04:20:53;;;;;;;16.73;5.25;;;5.00;99.90;;;;;;4986493;28;20022;-70
2023/05/03 04:23:18;;;;;;;13.18;6.30;;;4.90;99.90;;;;;;4981291;28;20023;-70
2023/05/03 04:25:47;;;;;;;12.25;5.78;;;4.90;99.90;;;;;;4985491;28;20028;-70
2023/05/03 04:28:14;;;;;;;47.28;6.30;;;4.80;99.90;;;;;;4980703;28;20045;-70
2023/05/03 04:30:42;;;;;;;132.70;5.00;;;4.80;99.90;;;;;;4978631;28;20022;-70
2023/05/03 04:33:08;;;;;;;14.13;4.32;;;4.80;99.90;;;;;;4980697;28;20033;-70
2023/05/03 04:35:34;;;;;;;36.92;4.28;;;4.60;99.90;;;;;;4984988;28;20169;-70
2023/05/03 04:38:01;;;;;;;19.25;4.50;;;4.50;99.90;;;;;;4970927;28;20034;-70
2023/05/03 04:40:27;;;;;;;19.23;4.72;;;4.50;99.90;;;;;;4974969;28;20502;-71
2023/05/03 04:42:53;;;;;;;25.40;5.30;;;4.60;99.90;;;;;;4990088;28;20073;-70
2023/05/03 04:45:19;;;;;;;13.77;6.88;;;4.60;99.90;;;;;;4982707;28;20035;-70
2023/05/03 04:47:45;;;;;;;19.63;5.60;;;4.70;99.90;;;;;;4983938;28;20483;-69
2023/05/03 04:50:11;;;;;;;19.42;5.32;;;4.60;99.90;;;;;;4988637;28;20069;-69
2023/05/03 04:52:37;;;;;;;14.80;5.75;;;4.60;99.90;;;;;;4990064;28;20498;-69
2023/05/03 04:55:04;;;;;;;11.32;5.53;;;4.70;99.90;;;;;;4989694;28;20053;-73
2023/05/03 04:57:31;;;;;;;13.15;5.97;;;4.80;99.90;;;;;;4989448;28;20018;-70
2023/05/03 04:59:57;;;;;;;14.43;5.15;;;4.90;99.90;;;;;;4981284;28;20031;-70
2023/05/03 05:02:22;;;;;;;32.17;15.07;;;5.00;99.90;;;;;;4990887;28;20120;-70
2023/05/03 05:04:48;;;;;;;22.85;5.53;;;5.20;99.90;;;;;;4984621;28;20387;-69
2023/05/03 05:07:14;;;;;;;56.20;6.70;;;5.30;99.90;;;;;;4988275;28;20375;-69
2023/05/03 05:09:40;;;;;;;11.25;4.88;;;5.40;99.90;;;;;;4990211;28;20055;-69
2023/05/03 05:12:05;;;;;;;14.02;5.70;;;5.40;99.90;;;;;;4985029;28;20499;-70
2023/05/03 05:14:31;;;;;;;13.02;7.85;;;5.40;99.90;;;;;;4985594;28;20491;-70
2023/05/03 05:16:57;;;;;;;14.80;6.60;;;5.50;99.90;;;;;;4990285;28;20414;-69
2023/05/03 05:19:23;;;;;;;13.95;7.07;;;5.70;99.90;;;;;;4983872;28;20022;-69
2023/05/03 05:21:50;;;;;;;15.25;7.18;;;5.90;99.90;;;;;;4985593;28;20027;-70
2023/05/03 05:24:15;;;;;;;14.60;6.80;;;6.00;99.90;;;;;;4986265;28;20594;-70
2023/05/03 05:26:42;;;;;;;12.57;5.95;;;6.30;99.90;;;;;;4990449;28;20137;-70
2023/05/03 05:29:07;;;;;;;13.40;6.57;;;6.60;99.90;;;;;;4985962;28;20232;-69
2023/05/03 05:31:34;;;;;;;16.48;6.82;;;6.70;99.90;;;;;;4988225;28;20507;-70
2023/05/03 05:33:59;;;;;;;14.43;7.13;;;6.70;99.90;;;;;;4981415;28;20529;-69
2023/05/03 05:36:26;;;;;;;16.08;7.32;;;6.80;99.90;;;;;;5005980;28;20038;-70
2023/05/03 05:38:51;;;;;;;23.23;11.02;;;7.00;99.90;;;;;;4990483;28;20039;-70
2023/05/03 05:41:17;;;;;;;23.20;9.90;;;7.10;99.90;;;;;;4989105;28;20107;-70
2023/05/03 05:43:43;;;;;;;18.13;9.00;;;7.20;99.90;;;;;;4990193;28;20037;-69
2023/05/03 05:46:09;;;;;;;19.13;9.15;;;7.30;99.90;;;;;;4989885;28;20100;-69
2023/05/03 05:48:35;;;;;;;24.83;9.75;;;7.50;99.90;;;;;;4971993;28;20031;-69
2023/05/03 05:51:01;;;;;;;21.73;8.82;;;7.60;99.90;;;;;;4990588;28;20082;-69
2023/05/03 05:53:27;;;;;;;23.45;9.68;;;7.80;99.90;;;;;;4990779;28;20478;-70
2023/05/03 05:55:53;;;;;;;30.63;12.95;;;8.00;99.90;;;;;;4973400;28;20050;-69
2023/05/03 05:58:19;;;;;;;22.20;9.77;;;8.10;99.90;;;;;;4990966;28;20034;-69
2023/05/03 06:00:47;;;;;;;23.98;9.45;;;8.20;99.90;;;;;;4990257;28;20154;-69
2023/05/03 06:03:14;;;;;;;28.48;12.18;;;8.20;99.90;;;;;;4989803;28;20041;-69
2023/05/03 06:05:40;;;;;;;32.63;10.68;;;8.20;99.90;;;;;;4989230;28;20041;-69
2023/05/03 06:08:06;;;;;;;28.13;10.88;;;8.30;99.90;;;;;;4990891;28;20034;-69
2023/05/03 06:10:32;;;;;;;28.52;11.50;;;8.20;99.90;;;;;;4990734;28;20052;-69
2023/05/03 06:12:58;;;;;;;26.80;11.73;;;8.20;99.90;;;;;;4983269;28;20045;-69
2023/05/03 06:15:25;;;;;;;26.10;11.18;;;8.30;99.90;;;;;;4990971;28;20031;-69
2023/05/03 06:17:50;;;;;;;34.72;14.63;;;8.10;99.90;;;;;;4989921;28;20026;-69
2023/05/03 06:20:18;;;;;;;28.77;12.95;;;8.20;99.90;;;;;;4981806;28;20042;-69
2023/05/03 06:22:44;;;;;;;36.60;13.30;;;8.30;99.90;;;;;;4982328;28;20104;-69
2023/05/03 06:25:12;;;;;;;31.65;13.02;;;8.30;99.90;;;;;;4981955;28;20070;-69
2023/05/03 06:27:38;;;;;;;32.65;14.00;;;8.10;99.90;;;;;;4987668;28;20023;-69
2023/05/03 06:30:05;;;;;;;34.20;13.88;;;8.10;99.90;;;;;;4990552;28;20042;-69
2023/05/03 06:32:30;;;;;;;38.40;13.98;;;8.10;99.90;;;;;;4981728;28;20074;-70
2023/05/03 06:34:58;;;;;;;32.90;13.90;;;8.30;99.90;;;;;;4982223;28;20050;-69
2023/05/03 06:37:25;;;;;;;38.85;14.75;;;8.30;99.90;;;;;;4988236;28;20054;-69
2023/05/03 06:39:50;;;;;;;34.17;13.73;;;8.20;99.90;;;;;;4989592;28;20045;-68
2023/05/03 06:42:16;;;;;;;31.80;14.07;;;8.30;99.90;;;;;;4989740;28;20030;-69
2023/05/03 06:44:42;;;;;;;35.85;15.20;;;8.40;99.90;;;;;;4989091;28;20474;-69
2023/05/03 06:47:07;;;;;;;35.17;15.50;;;8.50;99.90;;;;;;4990215;28;20391;-69
2023/05/03 06:49:33;;;;;;;42.50;15.88;;;8.50;99.90;;;;;;4989305;28;20698;-70
2023/05/03 06:51:59;;;;;;;34.38;15.05;;;8.50;99.90;;;;;;4989239;28;20026;-69
2023/05/03 06:54:25;;;;;;;35.92;15.75;;;8.50;99.90;;;;;;4989539;28;20034;-68
2023/05/03 06:56:50;;;;;;;33.78;15.05;;;8.70;99.90;;;;;;4989259;28;20118;-68
2023/05/03 06:59:16;;;;;;;37.25;15.10;;;9.00;99.90;;;;;;4989954;28;20037;-69
2023/05/03 07:01:42;;;;;;;33.45;13.82;;;9.10;99.90;;;;;;4988041;28;20109;-69
2023/05/03 07:04:07;;;;;;;34.35;14.60;;;9.10;99.90;;;;;;4981966;28;20057;-69
2023/05/03 07:06:33;;;;;;;37.00;14.35;;;9.20;99.90;;;;;;4988368;28;20038;-70
2023/05/03 07:08:59;;;;;;;35.47;14.25;;;9.40;99.90;;;;;;4988516;28;20054;-69
2023/05/03 07:11:25;;;;;;;34.45;14.35;;;9.50;99.90;;;;;;4989215;28;20053;-69
2023/05/03 07:13:54;;;;;;;29.88;13.80;;;9.60;99.90;;;;;;4986587;28;20547;-69
2023/05/03 07:16:20;;;;;;;30.00;14.00;;;9.80;99.90;;;;;;4981479;28;20112;-70
2023/05/03 07:18:47;;;;;;;33.40;15.40;;;9.90;99.90;;;;;;4995898;28;20422;-69
2023/05/03 07:21:14;;;;;;;32.03;15.48;;;9.90;99.90;;;;;;4983968;28;20101;-69
2023/05/03 07:23:39;;;;;;;34.33;15.13;;;9.80;99.90;;;;;;4980481;28;20048;-70
2023/05/03 07:26:05;;;;;;;33.08;14.75;;;9.80;99.90;;;;;;4989025;28;20042;-69
2023/05/03 07:28:31;;;;;;;29.50;13.68;;;9.90;99.90;;;;;;4989160;28;20042;-71
2023/05/03 07:30:57;;;;;;;31.08;13.80;;;10.10;99.90;;;;;;4988937;28;20046;-69
2023/05/03 07:33:23;;;;;;;35.05;15.73;;;10.20;99.90;;;;;;4981092;28;20062;-70
2023/05/03 07:35:49;;;;;;;33.88;14.85;;;10.40;99.90;;;;;;4987503;28;20049;-69
2023/05/03 07:38:15;;;;;;;32.60;14.52;;;10.40;99.90;;;;;;4989242;28;20034;-69
2023/05/03 07:40:41;;;;;;;30.67;14.68;;;10.60;99.90;;;;;;4962863;28;20173;-69
2023/05/03 07:43:11;;;;;;;27.05;13.63;;;10.60;99.90;;;;;;4988966;28;20110;-69
2023/05/03 07:45:37;;;;;;;29.98;14.40;;;10.50;99.90;;;;;;4986636;28;20565;-71
2023/05/03 07:48:03;;;;;;;33.10;14.48;;;10.50;99.90;;;;;;4977649;28;20412;-70
2023/05/03 07:50:29;;;;;;;31.67;14.95;;;10.80;99.90;;;;;;4985235;28;20034;-70
2023/05/03 07:52:55;;;;;;;34.65;15.38;;;10.90;99.90;;;;;;4983429;28;20026;-70
2023/05/03 07:55:21;;;;;;;28.13;14.05;;;10.90;99.90;;;;;;4984734;28;20030;-70
2023/05/03 07:57:46;;;;;;;30.10;14.55;;;11.00;99.90;;;;;;4987268;28;20035;-69
2023/05/03 08:00:13;;;;;;;31.83;14.18;;;11.10;99.90;;;;;;4988946;28;20562;-70
2023/05/03 08:02:39;;;;;;;29.05;13.80;;;11.20;99.90;;;;;;4987553;28;20483;-70
2023/05/03 08:05:05;;;;;;;31.95;14.00;;;11.30;99.90;;;;;;4989037;28;20471;-69
2023/05/03 08:07:31;;;;;;;28.48;13.98;;;11.50;99.90;;;;;;4958544;28;20105;-70
2023/05/03 08:10:01;;;;;;;33.65;14.25;;;11.50;99.90;;;;;;4972093;28;20173;-69
2023/05/03 08:12:27;;;;;;;25.77;13.63;;;11.50;99.90;;;;;;4981094;28;20053;-70
2023/05/03 08:14:54;;;;;;;28.15;14.32;;;11.60;99.90;;;;;;4986634;28;20037;-70
2023/05/03 08:17:21;;;;;;;33.65;14.18;;;11.70;99.90;;;;;;4981528;28;20122;-70
2023/05/03 08:19:47;;;;;;;28.00;13.90;;;11.70;99.90;;;;;;4979051;28;20065;-70
2023/05/03 08:22:13;;;;;;;30.90;14.35;;;11.80;99.90;;;;;;4997009;28;20054;-69
2023/05/03 08:24:39;;;;;;;35.88;14.50;;;11.90;99.90;;;;;;4976836;28;20030;-70
2023/05/03 08:27:05;;;;;;;29.25;14.93;;;11.60;99.90;;;;;;4988405;28;20430;-69
2023/05/03 08:29:31;;;;;;;32.17;15.30;;;11.50;99.90;;;;;;4980674;28;20033;-69
2023/05/03 08:31:57;;;;;;;29.50;14.32;;;11.50;99.90;;;;;;4987439;28;20022;-69
2023/05/03 08:34:23;;;;;;;30.48;15.35;;;11.50;99.90;;;;;;4987134;28;20034;-69
2023/05/03 08:36:50;;;;;;;32.15;15.52;;;11.50;99.90;;;;;;4987487;28;20042;-70
2023/05/03 08:39:17;;;;;;;32.08;14.95;;;11.60;99.90;;;;;;4989035;28;20556;-69
2023/05/03 08:41:43;;;;;;;25.65;13.15;;;11.70;99.90;;;;;;4986870;28;20034;-69
2023/05/03 08:44:11;;;;;;;29.40;13.15;;;11.80;99.90;;;;;;4988210;28;20022;-70
2023/05/03 08:46:37;;;;;;;29.73;13.60;;;11.80;99.90;;;;;;4988045;28;20434;-70
2023/05/03 08:49:05;;;;;;;31.48;14.30;;;12.20;99.90;;;;;;4987125;28;20042;-70
2023/05/03 08:51:34;;;;;;;27.08;13.80;;;12.20;99.90;;;;;;4980739;28;20053;-69
2023/05/03 08:53:59;;;;;;;28.45;13.95;;;12.20;99.90;;;;;;4977344;28;20218;-70
2023/05/03 08:56:32;;;;;;;29.90;14.45;;;12.30;99.90;;;;;;4982515;28;20435;-70
2023/05/03 08:59:06;;;;;;;29.88;14.40;;;12.40;99.90;;;;;;4987121;28;20058;-69
2023/05/03 09:01:32;;;;;;;29.95;14.57;;;12.60;99.90;;;;;;4987690;28;20870;-69
2023/05/03 09:03:58;;;;;;;28.42;14.80;;;12.60;99.90;;;;;;4986881;28;20040;-69
2023/05/03 09:06:27;;;;;;;27.50;14.15;;;12.80;99.90;;;;;;4985987;28;20030;-69
2023/05/03 09:08:53;;;;;;;25.23;14.48;;;13.00;99.90;;;;;;4979440;28;20073;-71
2023/05/03 09:11:30;;;;;;;27.65;13.45;;;13.10;99.90;;;;;;4980488;28;20027;-71
2023/05/03 09:14:09;;;;;;;24.77;13.23;;;13.00;99.90;;;;;;4981448;28;20131;-70
2023/05/03 09:16:35;;;;;;;26.48;13.35;;;13.00;99.90;;;;;;4987472;28;20049;-69
2023/05/03 09:19:08;;;;;;;24.20;13.02;;;13.20;99.90;;;;;;4978627;28;20511;-68
2023/05/03 09:21:34;;;;;;;24.10;13.48;;;13.40;99.90;;;;;;4980242;28;20029;-70
2023/05/03 09:24:02;;;;;;;27.42;13.68;;;13.70;99.90;;;;;;4987186;28;20018;-70
2023/05/03 09:26:33;;;;;;;23.80;13.23;;;13.60;99.90;;;;;;4990777;28;20487;-70
2023/05/03 09:29:00;;;;;;;;;;;13.50;99.90;;;;;;4990778;28;20038;-70
2023/05/03 09:31:27;;;;;;;24.83;13.07;;;13.70;99.90;;;;;;4991261;28;19933;-70
2023/05/03 09:33:53;;;;;;;23.85;13.18;;;13.80;99.90;;;;;;4990164;28;20378;-70
2023/05/03 09:36:19;;;;;;;26.45;14.05;;;13.70;99.90;;;;;;4982958;28;20030;-70
2023/05/03 09:38:45;;;;;;;27.70;14.02;;;13.60;99.90;;;;;;4989348;28;20034;-70
2023/05/03 09:41:11;;;;;;;23.00;12.70;;;13.70;99.90;;;;;;4991122;28;20033;-70
2023/05/03 09:43:48;;;;;;;27.23;13.68;;;13.90;99.90;;;;;;4986224;28;20535;-70
2023/05/03 09:46:14;;;;;;;32.08;13.85;;;14.00;99.90;;;;;;4990091;28;20077;-70
2023/05/03 09:48:40;;;;;;;29.38;14.02;;;14.10;99.90;;;;;;4990244;28;20031;-71
2023/05/03 09:51:07;;;;;;;23.38;13.32;;;14.50;99.90;;;;;;4982862;28;20034;-70
2023/05/03 09:53:34;;;;;;;24.10;12.73;;;14.90;99.90;;;;;;4973925;28;20038;-70
2023/05/03 09:56:05;;;;;;;23.35;12.82;;;15.50;99.90;;;;;;4990240;28;20283;-70
2023/05/03 09:58:34;;;;;;;26.98;12.98;;;15.50;99.90;;;;;;4991453;28;20031;-70
2023/05/03 10:01:00;;;;;;;28.98;13.38;;;15.40;99.90;;;;;;4989916;28;20031;-70
2023/05/03 10:03:49;;;;;;;18.80;11.82;;;15.40;99.90;;;;;;4988888;28;20082;-70
2023/05/03 10:06:17;;;;;;;20.90;12.00;;;15.50;99.90;;;;;;4989601;28;20085;-70
2023/05/03 10:08:51;;;;;;;25.02;11.95;;;15.20;99.90;;;;;;4990100;28;20550;-72
2023/05/03 10:11:18;;;;;;;20.92;11.05;;;15.30;99.90;;;;;;4990802;28;20031;-70
2023/05/03 10:13:44;;;;;;;20.30;11.63;;;15.40;99.90;;;;;;4985107;28;20066;-69
2023/05/03 10:16:23;;;;;;;18.55;10.40;;;15.40;99.90;;;;;;4979599;28;20138;-69
2023/05/03 10:18:55;;;;;;;21.98;12.25;;;15.20;99.90;;;;;;4989426;28;20027;-72
2023/05/03 10:21:32;;;;;;;20.02;11.20;;;15.50;99.90;;;;;;4980917;28;20061;-69
2023/05/03 10:24:24;;;;;;;20.42;12.05;;;16.00;99.90;;;;;;4989950;28;20041;-69
2023/05/03 10:26:50;;;;;;;18.58;10.77;;;16.30;99.90;;;;;;4982347;28;20483;-69
2023/05/03 10:29:34;;;;;;;21.17;12.02;;;16.50;99.90;;;;;;4982407;28;20035;-69
2023/05/03 10:32:04;;;;;;;19.10;11.27;;;16.10;99.90;;;;;;4989396;28;20037;-70
2023/05/03 10:34:34;;;;;;;20.38;11.23;;;15.90;99.90;;;;;;4989193;28;20387;-71
2023/05/03 10:37:01;;;;;;;20.80;11.77;;;15.80;99.90;;;;;;4980493;28;20040;-70
2023/05/03 10:39:28;;;;;;;21.40;12.70;;;15.50;99.90;;;;;;4984342;28;20403;-70
2023/05/03 10:42:12;;;;;;;28.50;11.98;;;15.40;99.90;;;;;;4993010;28;20463;-70
2023/05/03 10:44:40;;;;;;;22.42;12.20;;;15.40;99.90;;;;;;4988628;28;20338;-69
2023/05/03 10:47:13;;;;;;;24.60;12.75;;;15.30;99.90;;;;;;4981157;28;20073;-69
2023/05/03 10:49:39;;;;;;;23.98;12.18;;;15.80;99.90;;;;;;4986990;28;20145;-69
2023/05/03 10:52:37;;;;;;;20.60;11.45;;;16.30;99.90;;;;;;4984517;28;20113;-69
2023/05/03 10:55:08;;;;;;;20.05;10.93;;;16.70;99.90;;;;;;4983701;28;20101;-70
2023/05/03 10:57:36;;;;;;;20.10;10.60;;;16.90;99.90;;;;;;4989493;28;20070;-70
2023/05/03 11:00:07;;;;;;;19.50;11.48;;;17.40;99.90;;;;;;4986892;28;20125;-70
2023/05/03 11:02:35;;;;;;;;;;;17.20;99.90;;;;;;4990056;28;20046;-71
2023/05/03 11:05:07;;;;;;;17.05;10.63;;;17.10;99.90;;;;;;4971685;28;19910;-69
2023/05/03 11:07:33;;;;;;;20.23;10.10;;;17.50;99.90;;;;;;4989205;28;20030;-71
2023/05/03 11:09:59;;;;;;;15.52;9.07;;;17.40;99.90;;;;;;4971506;28;20116;-71
2023/05/03 11:12:25;;;;;;;17.77;10.18;;;17.30;99.90;;;;;;4989040;28;20026;-70
2023/05/03 11:14:50;;;;;;;17.02;9.60;;;17.50;99.90;;;;;;4980773;28;20027;-69
2023/05/03 11:17:16;;;;;;;16.17;9.57;;;17.40;99.90;;;;;;4973786;28;20054;-69
2023/05/03 11:19:46;;;;;;;14.05;8.60;;;17.40;99.90;;;;;;4987197;28;20042;-70
2023/05/03 11:22:11;;;;;;;16.13;9.00;;;17.60;99.90;;;;;;4982839;28;20493;-69
2023/05/03 11:24:37;;;;;;;15.02;8.57;;;17.70;99.90;;;;;;4980336;28;20370;-70
2023/05/03 11:27:03;;;;;;;17.15;8.80;;;17.50;99.90;;;;;;4984622;28;20037;-69
2023/05/03 11:29:30;;;;;;;17.25;9.07;;;17.80;99.90;;;;;;4989208;28;20027;-70
2023/05/03 11:31:56;;;;;;;17.20;9.13;;;18.00;99.90;;;;;;4988665;28;20030;-70
2023/05/03 11:34:21;;;;;;;14.93;8.27;;;18.30;99.90;;;;;;4989127;28;20042;-69
2023/05/03 11:36:48;;;;;;;16.73;7.70;;;18.70;99.90;;;;;;4985990;28;20046;-71
2023/05/03 11:39:14;;;;;;;14.50;8.45;;;18.80;99.90;;;;;;4989014;28;20121;-69
2023/05/03 11:41:43;;;;;;;14.25;8.57;;;18.60;99.90;;;;;;4988922;28;20029;-69
2023/05/03 11:44:08;;;;;;;14.75;8.05;;;18.60;99.90;;;;;;4970864;28;20081;-69
2023/05/03 11:46:37;;;;;;;13.90;8.40;;;18.00;99.90;;;;;;4980204;28;20399;-70
2023/05/03 11:49:03;;;;;;;14.57;7.80;;;17.50;99.90;;;;;;4981049;28;20038;-68
2023/05/03 11:51:30;;;;;;;13.40;7.05;;;17.60;99.90;;;;;;4988618;28;20022;-70
2023/05/03 11:53:58;;;;;;;10.38;6.20;;;18.20;99.90;;;;;;4979161;28;20387;-69
2023/05/03 11:56:23;;;;;;;16.00;7.22;;;18.60;99.90;;;;;;4984227;28;20042;-68
2023/05/03 11:58:57;;;;;;;13.10;7.40;;;18.80;99.90;;;;;;4988149;28;20538;-71
2023/05/03 12:01:27;;;;;;;12.20;6.15;;;18.70;99.90;;;;;;4988654;28;20038;-70
2023/05/03 12:03:55;;;;;;;;;;;18.90;99.90;;;;;;4986157;28;20105;-70
2023/05/03 12:06:21;;;;;;;12.65;6.47;;;19.30;99.90;;;;;;4982842;28;20255;-70
2023/05/03 12:08:47;;;;;;;12.30;6.45;;;19.20;99.90;;;;;;4988262;28;20423;-70
2023/05/03 12:11:13;;;;;;;14.43;8.15;;;19.50;99.90;;;;;;4988238;28;20030;-70
2023/05/03 12:13:39;;;;;;;11.45;6.75;;;19.20;98.50;;;;;;4973753;28;20022;-70
2023/05/03 12:16:06;;;;;;;13.98;6.65;;;19.30;98.40;;;;;;4987834;28;20034;-70
2023/05/03 12:18:50;;;;;;;13.45;7.63;;;19.30;97.60;;;;;;4987445;28;20034;-70
2023/05/03 12:21:20;;;;;;;14.98;8.60;;;19.40;98.50;;;;;;4983895;28;20018;-69
2023/05/03 12:23:48;;;;;;;13.53;7.43;;;19.30;99.90;;;;;;4985651;28;20077;-70
2023/05/03 12:26:14;;;;;;;13.25;6.93;;;19.10;99.90;;;;;;4988089;28;20026;-70
2023/05/03 12:28:40;;;;;;;13.10;6.18;;;19.40;98.40;;;;;;4988459;28;20507;-70
2023/05/03 12:31:06;;;;;;;11.82;7.60;;;19.30;95.60;;;;;;4985595;28;20058;-70
2023/05/03 12:33:32;;;;;;;10.55;6.05;;;19.30;96.00;;;;;;4980147;28;20030;-70
2023/05/03 12:35:58;;;;;;;11.05;6.00;;;19.40;96.70;;;;;;4985749;28;20133;-70
2023/05/03 12:38:24;;;;;;;10.60;5.90;;;19.40;94.90;;;;;;4982238;28;20085;-70
2023/05/03 12:40:49;;;;;;;11.30;6.63;;;19.30;94.70;;;;;;4987366;28;20022;-71